sensor_id;sensor_type;location;lat;lon;timestamp;pressure;altitude;pressure_sealevel;temperature;humidity
77216;BME280;66210;53.282;9.864;2023-04-01T00:01:14;98969.81;;;9.17;89.65
77216;BME280;66210;53.282;9.864;2023-04-01T00:03:42;98968.94;;;9.16;89.81
77216;BME280;66210;53.282;9.864;2023-04-01T00:06:13;98967.28;;;9.17;90.16
77216;BME280;66210;53.282;9.864;2023-04-01T00:08:40;98971.50;;;9.18;90.48
77216;BME280;66210;53.282;9.864;2023-04-01T00:11:06;98971.50;;;9.18;90.59
77216;BME280;66210;53.282;9.864;2023-04-01T00:13:33;98969.81;;;9.17;90.65
77216;BME280;66210;53.282;9.864;2023-04-01T00:16:00;98979.06;;;9.16;90.18
77216;BME280;66210;53.282;9.864;2023-04-01T00:18:29;98973.09;;;9.14;90.07
77216;BME280;66210;53.282;9.864;2023-04-01T00:20:56;98975.69;;;9.16;90.08
77216;BME280;66210;53.282;9.864;2023-04-01T00:23:23;98976.50;;;9.15;90.92
77216;BME280;66210;53.282;9.864;2023-04-01T00:25:50;98973.09;;;9.13;90.63
77216;BME280;66210;53.282;9.864;2023-04-01T00:28:18;98967.06;;;9.09;90.29
77216;BME280;66210;53.282;9.864;2023-04-01T00:30:46;98973.00;;;9.10;90.95
77216;BME280;66210;53.282;9.864;2023-04-01T00:33:13;98976.38;;;9.09;90.08
77216;BME280;66210;53.282;9.864;2023-04-01T00:35:40;98975.47;;;9.07;90.49
77216;BME280;66210;53.282;9.864;2023-04-01T00:38:08;98977.16;;;9.06;90.36
77216;BME280;66210;53.282;9.864;2023-04-01T00:40:40;98977.16;;;9.06;90.23
77216;BME280;66210;53.282;9.864;2023-04-01T00:43:18;98968.66;;;9.04;90.17
77216;BME280;66210;53.282;9.864;2023-04-01T00:45:48;98973.72;;;9.04;90.28
77216;BME280;66210;53.282;9.864;2023-04-01T00:48:21;98968.59;;;9.03;90.81
77216;BME280;66210;53.282;9.864;2023-04-01T00:50:53;98962.69;;;9.02;90.58
77216;BME280;66210;53.282;9.864;2023-04-01T00:53:22;98969.50;;;9.05;91.18
77216;BME280;66210;53.282;9.864;2023-04-01T00:55:56;98966.97;;;9.05;90.70
77216;BME280;66210;53.282;9.864;2023-04-01T00:58:27;98966.06;;;9.03;90.40
77216;BME280;66210;53.282;9.864;2023-04-01T01:00:57;98970.22;;;8.99;91.14
77216;BME280;66210;53.282;9.864;2023-04-01T01:03:25;98976.94;;;8.97;90.56
77216;BME280;66210;53.282;9.864;2023-04-01T01:06:10;98973.47;;;8.93;90.28
77216;BME280;66210;53.282;9.864;2023-04-01T01:11:10;98968.13;;;8.83;91.01
77216;BME280;66210;53.282;9.864;2023-04-01T01:13:56;98971.44;;;8.80;90.98
77216;BME280;66210;53.282;9.864;2023-04-01T01:16:30;98973.91;;;8.77;90.14
77216;BME280;66210;53.282;9.864;2023-04-01T01:19:09;98973.03;;;8.77;91.05
77216;BME280;66210;53.282;9.864;2023-04-01T01:21:55;98975.56;;;8.75;90.19
77216;BME280;66210;53.282;9.864;2023-04-01T01:27:11;98972.84;;;8.69;90.68
77216;BME280;66210;53.282;9.864;2023-04-01T01:30:10;98971.16;;;8.68;91.11
77216;BME280;66210;53.282;9.864;2023-04-01T01:33:17;98978.75;;;8.68;90.23
77216;BME280;66210;53.282;9.864;2023-04-01T01:35:50;98972.81;;;8.67;90.37
77216;BME280;66210;53.282;9.864;2023-04-01T01:38:21;98975.38;;;8.69;91.15
77216;BME280;66210;53.282;9.864;2023-04-01T01:40:50;98977.06;;;8.68;91.02
77216;BME280;66210;53.282;9.864;2023-04-01T01:43:37;98976.22;;;8.68;91.19
77216;BME280;66210;53.282;9.864;2023-04-01T01:46:09;98976.19;;;8.66;90.37
77216;BME280;66210;53.282;9.864;2023-04-01T01:48:37;98976.97;;;8.65;90.88
77216;BME280;66210;53.282;9.864;2023-04-01T01:51:05;98978.66;;;8.65;90.74
77216;BME280;66210;53.282;9.864;2023-04-01T01:53:32;98982.81;;;8.63;90.35
77216;BME280;66210;53.282;9.864;2023-04-01T01:55:58;98975.16;;;8.60;90.77
77216;BME280;66210;53.282;9.864;2023-04-01T01:58:32;98975.22;;;8.61;91.03
77216;BME280;66210;53.282;9.864;2023-04-01T02:01:04;98981.13;;;8.62;91.17
77216;BME280;66210;53.282;9.864;2023-04-01T02:03:37;98978.59;;;8.62;90.82
77216;BME280;66210;53.282;9.864;2023-04-01T02:06:08;98977.75;;;8.61;91.12
77216;BME280;66210;53.282;9.864;2023-04-01T02:08:45;98982.81;;;8.61;90.20
77216;BME280;66210;53.282;9.864;2023-04-01T02:11:17;98979.41;;;8.61;90.23
77216;BME280;66210;53.282;9.864;2023-04-01T02:13:55;98974.34;;;8.61;90.76
77216;BME280;66210;53.282;9.864;2023-04-01T02:16:28;98976.84;;;8.59;90.46
77216;BME280;66210;53.282;9.864;2023-04-01T02:18:59;98986.97;;;8.59;91.22
77216;BME280;66210;53.282;9.864;2023-04-01T02:21:31;98989.44;;;8.58;91.18
77216;BME280;66210;53.282;9.864;2023-04-01T02:24:00;98981.81;;;8.56;90.70
77216;BME280;66210;53.282;9.864;2023-04-01T02:26:29;98983.50;;;8.56;90.82
77216;BME280;66210;53.282;9.864;2023-04-01T02:28:57;98985.19;;;8.55;90.72
77216;BME280;66210;53.282;9.864;2023-04-01T02:31:25;98990.28;;;8.57;90.63
77216;BME280;66210;53.282;9.864;2023-04-01T02:33:53;98995.34;;;8.57;90.54
77216;BME280;66210;53.282;9.864;2023-04-01T02:36:20;98988.56;;;8.56;90.64
77216;BME280;66210;53.282;9.864;2023-04-01T02:38:47;98986.84;;;8.55;90.70
77216;BME280;66210;53.282;9.864;2023-04-01T02:41:16;98999.53;;;8.56;90.75
77216;BME280;66210;53.282;9.864;2023-04-01T02:43:43;98990.25;;;8.55;90.73
77216;BME280;66210;53.282;9.864;2023-04-01T02:46:09;98995.34;;;8.57;90.70
77216;BME280;66210;53.282;9.864;2023-04-01T02:48:36;98988.59;;;8.57;90.94
77216;BME280;66210;53.282;9.864;2023-04-01T02:51:03;98995.38;;;8.58;91.20
77216;BME280;66210;53.282;9.864;2023-04-01T02:53:30;98997.91;;;8.58;90.59
77216;BME280;66210;53.282;9.864;2023-04-01T02:55:57;98994.47;;;8.56;91.22
77216;BME280;66210;53.282;9.864;2023-04-01T02:58:23;98997.91;;;8.58;91.13
77216;BME280;66210;53.282;9.864;2023-04-01T03:00:50;98997.94;;;8.60;91.48
77216;BME280;66210;53.282;9.864;2023-04-01T03:03:17;99003.88;;;8.60;91.17
77216;BME280;66210;53.282;9.864;2023-04-01T03:05:44;99009.81;;;8.62;90.76
77216;BME280;66210;53.282;9.864;2023-04-01T03:08:11;99001.44;;;8.63;91.46
77216;BME280;66210;53.282;9.864;2023-04-01T03:10:38;98999.69;;;8.62;91.14
77216;BME280;66210;53.282;9.864;2023-04-01T03:13:05;99012.34;;;8.62;91.49
77216;BME280;66210;53.282;9.864;2023-04-01T03:15:32;99000.53;;;8.63;91.63
77216;BME280;66210;53.282;9.864;2023-04-01T03:17:59;99002.22;;;8.62;91.77
77216;BME280;66210;53.282;9.864;2023-04-01T03:20:26;99005.59;;;8.63;91.50
77216;BME280;66210;53.282;9.864;2023-04-01T03:22:53;99009.03;;;8.65;91.89
77216;BME280;66210;53.282;9.864;2023-04-01T03:25:20;99011.63;;;8.66;91.30
77216;BME280;66210;53.282;9.864;2023-04-01T03:27:46;99007.34;;;8.65;91.69
77216;BME280;66210;53.282;9.864;2023-04-01T03:30:13;99011.66;;;8.68;91.96
77216;BME280;66210;53.282;9.864;2023-04-01T03:32:40;99011.63;;;8.66;91.33
77216;BME280;66210;53.282;9.864;2023-04-01T03:35:07;99019.28;;;8.68;91.74
77216;BME280;66210;53.282;9.864;2023-04-01T03:37:36;99011.75;;;8.71;91.68
77216;BME280;66210;53.282;9.864;2023-04-01T03:40:03;99018.47;;;8.70;91.53
77216;BME280;66210;53.282;9.864;2023-04-01T03:42:30;99011.66;;;8.68;91.98
77216;BME280;66210;53.282;9.864;2023-04-01T03:44:58;99025.22;;;8.70;91.76
77216;BME280;66210;53.282;9.864;2023-04-01T03:47:25;99025.19;;;8.68;92.26
77216;BME280;66210;53.282;9.864;2023-04-01T03:49:52;99021.81;;;8.68;91.60
77216;BME280;66210;53.282;9.864;2023-04-01T03:52:19;99032.78;;;8.68;92.10
77216;BME280;66210;53.282;9.864;2023-04-01T03:54:45;99032.81;;;8.70;91.92
77216;BME280;66210;53.282;9.864;2023-04-01T03:57:12;99031.09;;;8.69;91.68
77216;BME280;66210;53.282;9.864;2023-04-01T03:59:39;99033.63;;;8.69;92.03
77216;BME280;66210;53.282;9.864;2023-04-01T04:02:05;99037.84;;;8.68;91.72
77216;BME280;66210;53.282;9.864;2023-04-01T04:04:32;99036.16;;;8.69;92.21
77216;BME280;66210;53.282;9.864;2023-04-01T04:06:59;99033.63;;;8.69;91.73
77216;BME280;66210;53.282;9.864;2023-04-01T04:09:26;99034.47;;;8.69;91.79
77216;BME280;66210;53.282;9.864;2023-04-01T04:11:52;99031.09;;;8.69;91.62
77216;BME280;66210;53.282;9.864;2023-04-01T04:14:19;99039.53;;;8.68;92.50
77216;BME280;66210;53.282;9.864;2023-04-01T04:16:46;99032.72;;;8.67;92.02
77216;BME280;66210;53.282;9.864;2023-04-01T04:19:12;99038.63;;;8.67;91.65
77216;BME280;66210;53.282;9.864;2023-04-01T04:21:40;99038.63;;;8.67;91.93
77216;BME280;66210;53.282;9.864;2023-04-01T04:24:07;99044.59;;;8.69;91.98
77216;BME280;66210;53.282;9.864;2023-04-01T04:26:34;99044.59;;;8.69;91.53
77216;BME280;66210;53.282;9.864;2023-04-01T04:29:01;99050.56;;;8.70;92.56
77216;BME280;66210;53.282;9.864;2023-04-01T04:31:28;99047.19;;;8.71;91.73
77216;BME280;66210;53.282;9.864;2023-04-01T04:33:55;99053.94;;;8.70;92.12
77216;BME280;66210;53.282;9.864;2023-04-01T04:36:22;99053.94;;;8.70;91.79
77216;BME280;66210;53.282;9.864;2023-04-01T04:38:48;99054.78;;;8.71;92.49
77216;BME280;66210;53.282;9.864;2023-04-01T04:41:17;99065.81;;;8.73;91.81
77216;BME280;66210;53.282;9.864;2023-04-01T04:43:52;99061.53;;;8.72;92.32
77216;BME280;66210;53.282;9.864;2023-04-01T04:46:20;99067.50;;;8.72;92.00
77216;BME280;66210;53.282;9.864;2023-04-01T04:48:46;99073.34;;;8.71;92.07
77216;BME280;66210;53.282;9.864;2023-04-01T04:51:18;99078.53;;;8.74;92.02
77216;BME280;66210;53.282;9.864;2023-04-01T04:53:46;99071.69;;;8.72;92.00
77216;BME280;66210;53.282;9.864;2023-04-01T04:56:13;99074.22;;;8.72;92.70
77216;BME280;66210;53.282;9.864;2023-04-01T04:58:43;99077.56;;;8.71;91.78
77216;BME280;66210;53.282;9.864;2023-04-01T05:01:11;99086.00;;;8.71;92.31
77216;BME280;66210;53.282;9.864;2023-04-01T05:03:38;99074.19;;;8.70;92.63
77216;BME280;66210;53.282;9.864;2023-04-01T05:06:06;99077.56;;;8.71;91.77
77216;BME280;66210;53.282;9.864;2023-04-01T05:08:33;99077.56;;;8.71;92.65
77216;BME280;66210;53.282;9.864;2023-04-01T05:11:01;99087.69;;;8.71;92.31
77216;BME280;66210;53.282;9.864;2023-04-01T05:13:28;99086.00;;;8.71;92.65
77216;BME280;66210;53.282;9.864;2023-04-01T05:15:54;99077.56;;;8.71;92.17
77216;BME280;66210;53.282;9.864;2023-04-01T05:18:21;99097.03;;;8.73;92.88
77216;BME280;66210;53.282;9.864;2023-04-01T05:20:53;99083.47;;;8.70;92.75
77216;BME280;66210;53.282;9.864;2023-04-01T05:23:21;99102.94;;;8.72;92.12
77216;BME280;66210;53.282;9.864;2023-04-01T05:25:48;99096.97;;;8.70;92.55
77216;BME280;66210;53.282;9.864;2023-04-01T05:28:16;99096.16;;;8.71;92.74
77216;BME280;66210;53.282;9.864;2023-04-01T05:30:43;99097.78;;;8.69;92.46
77216;BME280;66210;53.282;9.864;2023-04-01T05:33:11;99104.69;;;8.75;92.37
77216;BME280;66210;53.282;9.864;2023-04-01T05:35:39;99110.59;;;8.76;93.04
77216;BME280;66210;53.282;9.864;2023-04-01T05:38:06;99113.09;;;8.74;92.33
77216;BME280;66210;53.282;9.864;2023-04-01T05:40:34;99108.84;;;8.73;92.85
77216;BME280;66210;53.282;9.864;2023-04-01T05:43:00;99110.59;;;8.76;93.07
77216;BME280;66210;53.282;9.864;2023-04-01T05:45:27;99119.03;;;8.74;92.62
77216;BME280;66210;53.282;9.864;2023-04-01T05:47:54;99108.00;;;8.72;93.11
77216;BME280;66210;53.282;9.864;2023-04-01T05:50:20;99109.72;;;8.73;93.06
77216;BME280;66210;53.282;9.864;2023-04-01T05:52:47;99121.59;;;8.76;93.40
77216;BME280;66210;53.282;9.864;2023-04-01T05:55:13;99117.38;;;8.77;93.26
77216;BME280;66210;53.282;9.864;2023-04-01T05:57:40;99119.06;;;8.76;93.26
77216;BME280;66210;53.282;9.864;2023-04-01T06:00:07;99119.97;;;8.78;92.61
77216;BME280;66210;53.282;9.864;2023-04-01T06:02:33;99121.69;;;8.79;92.44
77216;BME280;66210;53.282;9.864;2023-04-01T06:05:11;99125.06;;;8.80;92.65
77216;BME280;66210;53.282;9.864;2023-04-01T06:07:39;99133.47;;;8.79;93.37
77216;BME280;66210;53.282;9.864;2023-04-01T06:10:14;99134.34;;;8.79;92.66
77216;BME280;66210;53.282;9.864;2023-04-01T06:15:36;99135.16;;;8.78;93.45
77216;BME280;66210;53.282;9.864;2023-04-01T06:18:48;99135.97;;;8.77;93.33
77216;BME280;66210;53.282;9.864;2023-04-01T06:24:26;99145.41;;;8.83;92.99
77216;BME280;66210;53.282;9.864;2023-04-01T06:27:16;99149.66;;;8.84;93.31
77216;BME280;66210;53.282;9.864;2023-04-01T06:35:15;99154.06;;;8.91;92.82
77216;BME280;66210;53.282;9.864;2023-04-01T06:38:12;99160.00;;;8.91;92.96
77216;BME280;66210;53.282;9.864;2023-04-01T06:46:31;99166.09;;;8.98;93.05
77216;BME280;66210;53.282;9.864;2023-04-01T06:51:42;99172.06;;;9.00;93.26
77216;BME280;66210;53.282;9.864;2023-04-01T06:54:17;99176.28;;;9.00;93.59
77216;BME280;66210;53.282;9.864;2023-04-01T06:56:49;99180.56;;;9.02;93.45
77216;BME280;66210;53.282;9.864;2023-04-01T06:59:21;99176.28;;;9.01;92.85
77216;BME280;66210;53.282;9.864;2023-04-01T07:02:02;99184.91;;;9.06;92.90
77216;BME280;66210;53.282;9.864;2023-04-01T07:04:38;99180.75;;;9.10;92.93
77216;BME280;66210;53.282;9.864;2023-04-01T07:07:30;99189.25;;;9.12;93.58
77216;BME280;66210;53.282;9.864;2023-04-01T07:10:04;99185.00;;;9.11;92.88
77216;BME280;66210;53.282;9.864;2023-04-01T07:15:02;99190.03;;;9.09;93.20
77216;BME280;66210;53.282;9.864;2023-04-01T07:17:33;99199.31;;;9.09;93.77
77216;BME280;66210;53.282;9.864;2023-04-01T07:20:24;99202.66;;;9.08;92.74
77216;BME280;66210;53.282;9.864;2023-04-01T07:23:01;99205.13;;;9.05;92.88
77216;BME280;66210;53.282;9.864;2023-04-01T07:25:34;99205.94;;;9.04;93.28
77216;BME280;66210;53.282;9.864;2023-04-01T07:28:11;99212.72;;;9.05;93.55
77216;BME280;66210;53.282;9.864;2023-04-01T07:33:55;99209.31;;;9.04;93.47
77216;BME280;66210;53.282;9.864;2023-04-01T07:36:43;99221.13;;;9.04;93.21
77216;BME280;66210;53.282;9.864;2023-04-01T07:39:48;99232.91;;;9.02;93.37
77216;BME280;66210;53.282;9.864;2023-04-01T07:47:44;99247.09;;;8.66;91.18
77216;BME280;66210;53.282;9.864;2023-04-01T07:50:27;99262.06;;;8.33;90.06
77216;BME280;66210;53.282;9.864;2023-04-01T07:53:14;99268.84;;;8.07;90.99
77216;BME280;66210;53.282;9.864;2023-04-01T07:55:56;99267.44;;;7.89;90.94
77216;BME280;66210;53.282;9.864;2023-04-01T08:06:20;99289.69;;;7.50;92.61
77216;BME280;66210;53.282;9.864;2023-04-01T08:08:59;99299.44;;;7.39;91.89
77216;BME280;66210;53.282;9.864;2023-04-01T08:16:58;99308.03;;;7.20;92.37
77216;BME280;66210;53.282;9.864;2023-04-01T08:19:53;99321.25;;;7.13;92.06
77216;BME280;66210;53.282;9.864;2023-04-01T08:22:40;99323.38;;;7.02;91.83
77216;BME280;66210;53.282;9.864;2023-04-01T08:25:16;99328.81;;;6.91;91.96
77216;BME280;66210;53.282;9.864;2023-04-01T08:30:42;99327.34;;;6.75;92.30
77216;BME280;66210;53.282;9.864;2023-04-01T08:33:19;99339.78;;;6.70;92.60
77216;BME280;66210;53.282;9.864;2023-04-01T08:36:09;99349.91;;;6.70;92.44
77216;BME280;66210;53.282;9.864;2023-04-01T08:38:52;99346.22;;;6.62;92.72
77216;BME280;66210;53.282;9.864;2023-04-01T08:52:26;99370.41;;;6.57;92.37
77216;BME280;66210;53.282;9.864;2023-04-01T08:58:15;99376.81;;;6.49;92.47
77216;BME280;66210;53.282;9.864;2023-04-01T09:06:32;99380.38;;;6.54;92.71
77216;BME280;66210;53.282;9.864;2023-04-01T09:09:13;99382.84;;;6.52;92.37
77216;BME280;66210;53.282;9.864;2023-04-01T09:12:18;99390.22;;;6.48;92.03
77216;BME280;66210;53.282;9.864;2023-04-01T09:17:43;99404.06;;;6.36;91.61
77216;BME280;66210;53.282;9.864;2023-04-01T09:20:37;99402.44;;;6.37;92.02
77216;BME280;66210;53.282;9.864;2023-04-01T09:23:28;99408.00;;;6.30;91.71
77216;BME280;66210;53.282;9.864;2023-04-01T09:29:04;99411.06;;;6.22;91.85
77216;BME280;66210;53.282;9.864;2023-04-01T09:34:30;99417.97;;;6.27;92.38
77216;BME280;66210;53.282;9.864;2023-04-01T09:37:32;99423.28;;;6.33;92.60
77216;BME280;66210;53.282;9.864;2023-04-01T09:40:15;99428.34;;;6.34;93.25
77216;BME280;66210;53.282;9.864;2023-04-01T09:43:01;99432.75;;;6.38;92.50
77216;BME280;66210;53.282;9.864;2023-04-01T09:51:22;99443.19;;;6.27;92.53
77216;BME280;66210;53.282;9.864;2023-04-01T09:57:13;99462.13;;;6.17;93.04
77216;BME280;66210;53.282;9.864;2023-04-01T10:00:06;99458.59;;;6.13;92.76
77216;BME280;66210;53.282;9.864;2023-04-01T10:08:19;99470.84;;;6.25;93.00
77216;BME280;66210;53.282;9.864;2023-04-01T10:13:42;99482.22;;;6.15;92.15
77216;BME280;66210;53.282;9.864;2023-04-01T10:16:58;99486.13;;;6.09;92.59
77216;BME280;66210;53.282;9.864;2023-04-01T10:25:37;99485.94;;;6.04;92.24
77216;BME280;66210;53.282;9.864;2023-04-01T10:28:42;99499.31;;;6.03;92.47
77216;BME280;66210;53.282;9.864;2023-04-01T10:34:33;99513.28;;;5.95;92.57
77216;BME280;66210;53.282;9.864;2023-04-01T10:37:23;99508.97;;;5.94;92.40
77216;BME280;66210;53.282;9.864;2023-04-01T10:40:14;99509.94;;;5.96;93.33
77216;BME280;66210;53.282;9.864;2023-04-01T10:46:05;99519.16;;;5.95;92.28
77216;BME280;66210;53.282;9.864;2023-04-01T10:52:06;99523.84;;;5.88;91.96
77216;BME280;66210;53.282;9.864;2023-04-01T11:00:35;99533.25;;;5.92;92.22
77216;BME280;66210;53.282;9.864;2023-04-01T11:03:30;99545.22;;;5.96;92.94
77216;BME280;66210;53.282;9.864;2023-04-01T11:06:45;99543.41;;;5.93;92.14
77216;BME280;66210;53.282;9.864;2023-04-01T11:09:31;99550.97;;;5.93;92.11
77216;BME280;66210;53.282;9.864;2023-04-01T11:12:19;99558.66;;;5.95;91.98
77216;BME280;66210;53.282;9.864;2023-04-01T11:20:42;99556.81;;;5.92;92.07
77216;BME280;66210;53.282;9.864;2023-04-01T11:26:22;99571.78;;;5.89;91.89
77216;BME280;66210;53.282;9.864;2023-04-01T11:34:32;99585.34;;;5.91;92.41
77216;BME280;66210;53.282;9.864;2023-04-01T11:39:59;99581.09;;;5.90;92.83
77216;BME280;66210;53.282;9.864;2023-04-01T11:45:23;99598.19;;;5.96;93.04
77216;BME280;66210;53.282;9.864;2023-04-01T11:48:26;99602.03;;;5.89;91.91
77216;BME280;66210;53.282;9.864;2023-04-01T11:51:24;99613.16;;;5.93;92.52
77216;BME280;66210;53.282;9.864;2023-04-01T11:59:42;99635.94;;;5.94;92.26
77216;BME280;66210;53.282;9.864;2023-04-01T12:02:53;99630.94;;;5.96;92.40
77216;BME280;66210;53.282;9.864;2023-04-01T12:06:05;99638.81;;;6.02;91.86
77216;BME280;66210;53.282;9.864;2023-04-01T12:14:16;99649.28;;;5.93;91.88
77216;BME280;66210;53.282;9.864;2023-04-01T12:19:42;99661.91;;;5.93;92.22
77216;BME280;66210;53.282;9.864;2023-04-01T12:25:14;99667.19;;;5.98;92.19
77216;BME280;66210;53.282;9.864;2023-04-01T12:27:58;99671.50;;;6.00;92.41
77216;BME280;66210;53.282;9.864;2023-04-01T12:30:39;99664.97;;;6.04;92.09
77216;BME280;66210;53.282;9.864;2023-04-01T12:33:27;99668.25;;;6.03;91.71
77216;BME280;66210;53.282;9.864;2023-04-01T12:36:09;99676.41;;;5.97;92.03
77216;BME280;66210;53.282;9.864;2023-04-01T12:39:14;99676.94;;;5.92;92.02
77216;BME280;66210;53.282;9.864;2023-04-01T12:45:42;99683.03;;;5.95;92.13
77216;BME280;66210;53.282;9.864;2023-04-01T12:53:55;99688.16;;;5.97;92.08
77216;BME280;66210;53.282;9.864;2023-04-01T13:01:55;99714.97;;;5.95;92.58
77216;BME280;66210;53.282;9.864;2023-04-01T13:04:49;99723.03;;;5.89;91.66
77216;BME280;66210;53.282;9.864;2023-04-01T13:07:24;99723.47;;;5.80;91.29
77216;BME280;66210;53.282;9.864;2023-04-01T13:12:53;99735.56;;;5.70;91.60
77216;BME280;66210;53.282;9.864;2023-04-01T13:15:28;99736.34;;;5.69;91.67
77216;BME280;66210;53.282;9.864;2023-04-01T13:23:52;99757.63;;;5.57;90.72
77216;BME280;66210;53.282;9.864;2023-04-01T13:26:29;99747.31;;;5.53;90.72
77216;BME280;66210;53.282;9.864;2023-04-01T13:37:47;99778.25;;;5.50;91.23
77216;BME280;66210;53.282;9.864;2023-04-01T13:42:54;99787.31;;;5.47;91.48
77216;BME280;66210;53.282;9.864;2023-04-01T13:45:33;99788.59;;;5.38;90.32
77216;BME280;66210;53.282;9.864;2023-04-01T13:48:10;99807.78;;;5.36;90.45
77216;BME280;66210;53.282;9.864;2023-04-01T13:51:07;99800.94;;;5.34;90.67
77216;BME280;66210;53.282;9.864;2023-04-01T14:00:10;99816.34;;;5.24;91.41
77216;BME280;66210;53.282;9.864;2023-04-01T14:05:59;99823.28;;;5.28;91.72
77216;BME280;66210;53.282;9.864;2023-04-01T14:11:27;99827.38;;;5.26;90.99
77216;BME280;66210;53.282;9.864;2023-04-01T14:28:41;99854.38;;;4.97;91.22
77216;BME280;66210;53.282;9.864;2023-04-01T14:31:28;99872.81;;;4.96;91.11
77216;BME280;66210;53.282;9.864;2023-04-01T14:34:21;99864.22;;;4.92;91.52
77216;BME280;66210;53.282;9.864;2023-04-01T14:37:19;99879.16;;;4.89;91.49
77216;BME280;66210;53.282;9.864;2023-04-01T14:51:16;99889.47;;;4.94;92.15
77216;BME280;66210;53.282;9.864;2023-04-01T14:53:58;99891.91;;;4.92;91.15
77216;BME280;66210;53.282;9.864;2023-04-01T14:57:14;99895.13;;;4.90;91.17
77216;BME280;66210;53.282;9.864;2023-04-01T14:59:48;99896.69;;;4.88;91.43
77216;BME280;66210;53.282;9.864;2023-04-01T15:02:41;99907.22;;;4.81;90.71
77216;BME280;66210;53.282;9.864;2023-04-01T15:05:39;99911.28;;;4.78;90.61
77216;BME280;66210;53.282;9.864;2023-04-01T15:08:30;99916.91;;;4.74;90.33
77216;BME280;66210;53.282;9.864;2023-04-01T15:11:33;99919.97;;;4.69;90.76
77216;BME280;66210;53.282;9.864;2023-04-01T15:23:01;99940.09;;;4.69;90.75
77216;BME280;66210;53.282;9.864;2023-04-01T15:25:51;99946.16;;;4.72;90.55
77216;BME280;66210;53.282;9.864;2023-04-01T15:31:16;99968.19;;;4.62;90.84
77216;BME280;66210;53.282;9.864;2023-04-01T15:36:32;99970.53;;;4.58;90.45
77216;BME280;66210;53.282;9.864;2023-04-01T15:44:52;99980.50;;;4.57;89.74
77216;BME280;66210;53.282;9.864;2023-04-01T15:52:43;99986.16;;;4.53;90.43
77216;BME280;66210;53.282;9.864;2023-04-01T15:55:37;100007.91;;;4.52;89.67
77216;BME280;66210;53.282;9.864;2023-04-01T15:58:30;100005.06;;;4.46;89.50
77216;BME280;66210;53.282;9.864;2023-04-01T16:01:26;100004.59;;;4.38;90.16
77216;BME280;66210;53.282;9.864;2023-04-01T16:06:53;100030.16;;;4.31;89.63
77216;BME280;66210;53.282;9.864;2023-04-01T16:20:46;100062.50;;;4.25;89.58
77216;BME280;66210;53.282;9.864;2023-04-01T16:23:28;100058.16;;;4.23;89.24
77216;BME280;66210;53.282;9.864;2023-04-01T16:26:06;100066.28;;;4.19;90.08
77216;BME280;66210;53.282;9.864;2023-04-01T16:34:17;100076.75;;;4.11;89.48
77216;BME280;66210;53.282;9.864;2023-04-01T16:36:52;100078.28;;;4.09;90.27
77216;BME280;66210;53.282;9.864;2023-04-01T16:39:47;100083.22;;;4.08;89.72
77216;BME280;66210;53.282;9.864;2023-04-01T16:42:28;100092.72;;;3.99;89.13
77216;BME280;66210;53.282;9.864;2023-04-01T16:45:30;100094.38;;;3.98;89.73
77216;BME280;66210;53.282;9.864;2023-04-01T16:48:13;100104.25;;;3.95;89.57
77216;BME280;66210;53.282;9.864;2023-04-01T16:51:03;100107.34;;;3.91;89.82
77216;BME280;66210;53.282;9.864;2023-04-01T16:53:41;100112.47;;;3.92;89.44
77216;BME280;66210;53.282;9.864;2023-04-01T16:56:24;100113.31;;;3.93;89.60
77216;BME280;66210;53.282;9.864;2023-04-01T17:01:24;100130.06;;;3.92;89.43
77216;BME280;66210;53.282;9.864;2023-04-01T17:04:06;100145.13;;;3.92;89.62
77216;BME280;66210;53.282;9.864;2023-04-01T17:06:49;100144.16;;;3.90;89.23
77216;BME280;66210;53.282;9.864;2023-04-01T17:18:02;100159.72;;;3.71;88.27
77216;BME280;66210;53.282;9.864;2023-04-01T17:20:43;100170.03;;;3.76;88.52
77216;BME280;66210;53.282;9.864;2023-04-01T17:26:01;100183.84;;;3.69;87.51
77216;BME280;66210;53.282;9.864;2023-04-01T17:28:46;100186.00;;;3.63;87.66
77216;BME280;66210;53.282;9.864;2023-04-01T17:31:30;100204.44;;;3.64;88.21
77216;BME280;66210;53.282;9.864;2023-04-01T17:37:24;100213.53;;;3.62;88.39
77216;BME280;66210;53.282;9.864;2023-04-01T17:46:09;100234.28;;;3.59;88.73
77216;BME280;66210;53.282;9.864;2023-04-01T17:48:50;100246.84;;;3.59;87.84
77216;BME280;66210;53.282;9.864;2023-04-01T17:51:43;100246.56;;;3.54;87.66
77216;BME280;66210;53.282;9.864;2023-04-01T17:54:21;100253.13;;;3.52;88.17
77216;BME280;66210;53.282;9.864;2023-04-01T17:57:24;100265.44;;;3.49;87.62
77216;BME280;66210;53.282;9.864;2023-04-01T18:03:09;100277.69;;;3.45;87.67
77216;BME280;66210;53.282;9.864;2023-04-01T18:08:33;100280.88;;;3.42;88.60
77216;BME280;66210;53.282;9.864;2023-04-01T18:11:34;100286.75;;;3.43;88.53
77216;BME280;66210;53.282;9.864;2023-04-01T18:17:24;100322.50;;;3.39;88.02
77216;BME280;66210;53.282;9.864;2023-04-01T18:20:11;100325.34;;;3.31;87.53
77216;BME280;66210;53.282;9.864;2023-04-01T18:23:00;100330.06;;;3.27;87.29
77216;BME280;66210;53.282;9.864;2023-04-01T18:25:34;100323.44;;;3.27;87.89
77216;BME280;66210;53.282;9.864;2023-04-01T18:30:39;100341.63;;;3.25;88.17
77216;BME280;66210;53.282;9.864;2023-04-01T18:33:19;100330.84;;;3.26;88.07
77216;BME280;66210;53.282;9.864;2023-04-01T18:35:52;100348.19;;;3.23;87.99
77216;BME280;66210;53.282;9.864;2023-04-01T18:38:40;100361.63;;;3.23;87.49
77216;BME280;66210;53.282;9.864;2023-04-01T18:41:14;100373.09;;;3.20;86.86
77216;BME280;66210;53.282;9.864;2023-04-01T18:44:16;100381.59;;;3.22;87.54
77216;BME280;66210;53.282;9.864;2023-04-01T18:46:52;100379.88;;;3.21;86.33
77216;BME280;66210;53.282;9.864;2023-04-01T18:49:39;100384.91;;;3.21;85.99
77216;BME280;66210;53.282;9.864;2023-04-01T18:52:20;100386.41;;;3.19;85.44
77216;BME280;66210;53.282;9.864;2023-04-01T18:57:50;100402.56;;;3.22;85.54
77216;BME280;66210;53.282;9.864;2023-04-01T19:02:50;100412.50;;;3.21;86.45
77216;BME280;66210;53.282;9.864;2023-04-01T19:05:30;100411.53;;;3.19;86.38
77216;BME280;66210;53.282;9.864;2023-04-01T19:08:28;100417.53;;;3.21;86.50
77216;BME280;66210;53.282;9.864;2023-04-01T19:11:13;100428.31;;;3.20;86.44
77216;BME280;66210;53.282;9.864;2023-04-01T19:27:53;100453.44;;;3.08;85.85
77216;BME280;66210;53.282;9.864;2023-04-01T19:30:25;100462.16;;;3.01;84.25